createdAt,value
2019-03-12T00:00:36.810Z,14.77
2019-03-12T00:05:42.551Z,14.00
2019-03-12T00:10:48.295Z,13.47
2019-03-12T00:15:54.007Z,15.50
2019-03-12T00:20:59.739Z,12.30
2019-03-12T00:26:05.418Z,13.83
2019-03-12T00:31:11.274Z,12.10
2019-03-12T00:36:17.042Z,12.87
2019-03-12T00:41:22.709Z,10.60
2019-03-12T00:46:28.295Z,15.63
2019-03-12T00:51:34.041Z,16.63
2019-03-12T00:56:39.711Z,17.23
2019-03-12T01:01:45.473Z,18.73
2019-03-12T01:06:51.259Z,20.43
2019-03-12T01:11:56.934Z,17.50
2019-03-12T01:17:02.681Z,13.93
2019-03-12T01:22:08.435Z,16.17
2019-03-12T01:27:14.056Z,15.23
2019-03-12T01:32:19.877Z,13.03
2019-03-12T01:37:25.648Z,14.93
2019-03-12T01:42:31.442Z,15.30
2019-03-12T01:47:37.335Z,13.50
2019-03-12T01:52:43.503Z,13.90
2019-03-12T01:57:50.245Z,9.90
2019-03-12T02:02:57.190Z,11.83
2019-03-12T02:08:02.982Z,16.70
2019-03-12T02:13:08.670Z,13.53
2019-03-12T02:18:14.441Z,11.30
2019-03-12T02:23:21.208Z,11.30
2019-03-12T02:28:27.046Z,13.83
2019-03-12T02:33:32.806Z,13.37
2019-03-12T02:38:38.487Z,12.20
2019-03-12T02:43:44.216Z,11.40
2019-03-12T02:48:49.886Z,13.93
2019-03-12T02:53:56.763Z,11.57
2019-03-12T02:59:02.429Z,11.03
2019-03-12T03:04:08.185Z,13.03
2019-03-12T03:09:14.053Z,12.50
2019-03-12T03:14:31.696Z,14.23
2019-03-12T03:19:37.659Z,13.23
2019-03-12T03:24:44.642Z,11.23
2019-03-12T03:29:50.395Z,16.40
2019-03-12T03:34:56.003Z,11.30
2019-03-12T03:40:02.869Z,12.37
2019-03-12T03:45:09.946Z,15.03
2019-03-12T03:50:17.602Z,12.57
2019-03-12T03:55:23.869Z,12.03
2019-03-12T04:00:29.626Z,11.73
2019-03-12T04:05:35.327Z,11.60
2019-03-12T04:10:41.068Z,13.83
2019-03-12T04:15:47.038Z,11.10
2019-03-12T04:20:53.700Z,12.97
2019-03-12T04:25:59.477Z,12.67
2019-03-12T04:31:05.225Z,17.43
2019-03-12T04:36:11.023Z,14.40
2019-03-12T04:41:16.689Z,15.53
2019-03-12T04:46:22.398Z,18.73
2019-03-12T04:51:28.083Z,19.77
2019-03-12T04:56:33.965Z,19.60
2019-03-12T05:01:39.884Z,21.43
2019-03-12T05:06:45.963Z,20.83
2019-03-12T05:11:51.850Z,20.93
2019-03-12T05:17:00.762Z,19.20
2019-03-12T05:22:06.581Z,21.07
2019-03-12T05:27:12.435Z,23.27
2019-03-12T05:32:19.056Z,20.93
2019-03-12T05:37:25.083Z,22.70
2019-03-12T05:42:31.107Z,30.20
2019-03-12T05:47:37.182Z,19.40
2019-03-12T05:52:43.098Z,21.97
2019-03-12T05:57:49.175Z,27.80
2019-03-12T06:02:55.107Z,25.93
2019-03-12T06:08:00.935Z,27.57
2019-03-12T06:13:06.713Z,23.57
2019-03-12T06:18:12.406Z,28.17
2019-03-12T06:23:18.250Z,28.60
2019-03-12T06:28:24.113Z,25.90
2019-03-12T06:33:50.300Z,29.03
2019-03-12T06:39:13.746Z,27.83
2019-03-12T06:44:27.096Z,24.57
2019-03-12T06:49:34.428Z,23.50
2019-03-12T06:54:41.796Z,29.80
2019-03-12T06:59:51.849Z,27.87
2019-03-12T07:04:59.322Z,25.20
2019-03-12T07:10:09.445Z,23.80
2019-03-12T07:15:16.904Z,25.60
2019-03-12T07:20:33.322Z,21.03
2019-03-12T07:25:46.517Z,22.40
2019-03-12T07:30:54.059Z,21.27
2019-03-12T07:36:07.416Z,21.43
2019-03-12T07:41:32.251Z,22.83
2019-03-12T07:46:56.229Z,22.37
2019-03-12T07:52:18.846Z,17.10
2019-03-12T07:57:29.471Z,18.67
2019-03-12T08:02:51.855Z,19.57
2019-03-12T08:08:11.926Z,20.10
2019-03-12T08:13:28.959Z,18.63
2019-03-12T08:18:52.881Z,21.23
2019-03-12T08:24:15.723Z,22.27
2019-03-12T08:29:31.938Z,20.63
2019-03-12T08:34:48.567Z,21.47
2019-03-12T08:39:56.079Z,24.37
2019-03-12T08:45:11.205Z,21.43
2019-03-12T08:50:18.283Z,23.93
2019-03-12T08:55:34.892Z,22.17
2019-03-12T09:00:45.025Z,17.93
2019-03-12T09:05:52.389Z,20.87
2019-03-12T09:11:02.803Z,21.13
2019-03-12T09:16:10.255Z,23.17
2019-03-12T09:21:26.777Z,17.10
2019-03-12T09:26:40.526Z,20.73
2019-03-12T09:31:57.035Z,14.80
2019-03-12T09:37:04.717Z,17.13
2019-03-12T09:42:28.426Z,13.87
2019-03-12T09:47:51.831Z,13.93
2019-03-12T09:53:08.219Z,13.43
2019-03-12T09:58:15.735Z,8.93
2019-03-12T10:03:29.206Z,13.37
2019-03-12T10:08:51.990Z,9.80
2019-03-12T10:14:11.706Z,11.73
2019-03-12T10:19:31.773Z,8.90
2019-03-12T10:24:51.492Z,7.87
2019-03-12T10:29:58.908Z,6.27
2019-03-12T10:35:26.010Z,7.33
2019-03-12T10:40:36.251Z,6.77
2019-03-12T10:45:43.596Z,7.87
2019-03-12T10:50:49.419Z,7.70
2019-03-12T10:55:55.170Z,6.17
2019-03-12T11:01:00.893Z,7.10
2019-03-12T11:06:06.659Z,5.97
2019-03-12T11:11:12.346Z,5.23
2019-03-12T11:16:18.145Z,5.23
2019-03-12T11:21:25.073Z,5.33
2019-03-12T11:26:30.835Z,4.63
2019-03-12T11:31:36.576Z,5.33
2019-03-12T11:36:42.574Z,3.23
2019-03-12T11:41:48.447Z,4.63
2019-03-12T11:46:54.266Z,2.93
2019-03-12T11:52:00.122Z,4.20
2019-03-12T11:57:05.879Z,4.77
2019-03-12T12:02:12.799Z,5.73
2019-03-12T12:07:18.703Z,4.03
2019-03-12T12:12:24.555Z,3.60
2019-03-12T12:17:30.453Z,3.53
2019-03-12T12:22:36.312Z,3.80
2019-03-12T12:27:42.221Z,3.27
2019-03-12T12:32:48.189Z,2.63
2019-03-12T12:37:53.965Z,4.90
2019-03-12T12:42:59.784Z,4.67
2019-03-12T12:48:05.805Z,2.80
2019-03-12T12:53:11.786Z,5.40
2019-03-12T12:58:17.681Z,2.67
2019-03-12T13:03:23.380Z,6.53
2019-03-12T13:08:29.146Z,4.93
2019-03-12T13:13:35.017Z,3.20
2019-03-12T13:18:41.107Z,2.63
2019-03-12T13:23:47.271Z,2.23
2019-03-12T13:28:53.138Z,3.83
2019-03-12T13:33:59.031Z,1.60
2019-03-12T13:39:06.857Z,2.90
2019-03-12T13:44:14.343Z,5.07
2019-03-12T13:49:20.323Z,3.53
2019-03-12T13:54:26.302Z,4.77
2019-03-12T13:59:32.266Z,4.00
2019-03-12T14:04:38.228Z,3.90
2019-03-12T14:09:44.125Z,3.63
2019-03-12T14:14:49.979Z,4.87
2019-03-12T14:19:55.876Z,3.43
2019-03-12T14:25:02.198Z,4.47
2019-03-12T14:30:09.850Z,2.60
2019-03-12T14:35:16.126Z,3.53
2019-03-12T14:40:22.098Z,1.90
2019-03-12T14:45:29.532Z,2.87
2019-03-12T14:50:35.457Z,3.90
2019-03-12T14:55:41.203Z,3.90
2019-03-12T15:00:47.071Z,2.87
2019-03-12T15:05:53.056Z,3.27
2019-03-12T15:10:58.860Z,2.80
2019-03-12T15:16:04.844Z,3.57
2019-03-12T15:21:10.597Z,4.87
2019-03-12T15:26:16.479Z,4.00
2019-03-12T15:31:22.424Z,3.43
2019-03-12T15:36:28.249Z,3.43
2019-03-12T15:41:35.138Z,3.67
2019-03-12T15:46:40.997Z,4.00
2019-03-12T15:51:46.787Z,3.03
2019-03-12T15:56:52.667Z,5.20
2019-03-12T16:01:58.584Z,4.00
2019-03-12T16:07:04.493Z,2.70
2019-03-12T16:12:10.819Z,3.77
2019-03-12T16:17:16.644Z,4.67
2019-03-12T16:22:22.687Z,4.93
2019-03-12T16:27:28.574Z,4.27
2019-03-12T16:32:35.506Z,5.00
2019-03-12T16:37:41.603Z,3.13
2019-03-12T16:42:47.533Z,6.93
2019-03-12T16:47:54.258Z,2.97
2019-03-12T16:53:00.181Z,5.47
2019-03-12T16:58:06.562Z,3.20
2019-03-12T17:03:12.639Z,4.23
2019-03-12T17:08:18.722Z,2.73
2019-03-12T17:13:26.034Z,3.13
2019-03-12T17:18:32.033Z,3.83
2019-03-12T17:23:37.922Z,4.07
2019-03-12T17:28:43.730Z,4.97
2019-03-12T17:33:49.646Z,2.73
2019-03-12T17:38:55.892Z,5.57
2019-03-12T17:44:01.820Z,4.13
2019-03-12T17:49:08.761Z,2.90
2019-03-12T17:54:14.521Z,5.10
2019-03-12T17:59:20.490Z,5.40
2019-03-12T18:04:26.473Z,4.53
2019-03-12T18:09:32.415Z,4.40
2019-03-12T18:14:38.530Z,5.00
2019-03-12T18:19:44.505Z,4.37
2019-03-12T18:24:52.115Z,4.17
2019-03-12T18:29:58.077Z,3.40
2019-03-12T18:35:05.071Z,4.17
2019-03-12T18:40:13.785Z,4.80
2019-03-12T18:45:27.014Z,4.77
2019-03-12T18:50:32.922Z,7.40
2019-03-12T18:55:46.247Z,3.50
2019-03-12T19:00:53.073Z,5.53
2019-03-12T19:06:00.069Z,3.90
2019-03-12T19:11:06.342Z,5.90
2019-03-12T19:16:12.740Z,5.10
2019-03-12T19:21:18.797Z,4.10
2019-03-12T19:26:24.706Z,5.73
2019-03-12T19:31:50.303Z,6.93
2019-03-12T19:36:56.521Z,4.17
2019-03-12T19:42:02.488Z,6.73
2019-03-12T19:47:08.371Z,5.03
2019-03-12T19:52:14.373Z,4.13
2019-03-12T19:57:20.283Z,4.63
2019-03-12T20:02:26.665Z,4.70
2019-03-12T20:07:32.745Z,4.13
2019-03-12T20:13:14.936Z,7.70
2019-03-12T20:18:43.262Z,12.93
2019-03-12T20:24:14.844Z,4.83
2019-03-12T20:29:46.335Z,6.50
2019-03-12T20:35:25.493Z,4.90
2019-03-12T20:40:55.825Z,5.07
2019-03-12T20:46:14.485Z,5.17
2019-03-12T20:51:29.047Z,5.37
2019-03-12T20:57:11.702Z,7.07
2019-03-12T21:02:37.020Z,4.83
2019-03-12T21:08:19.433Z,6.20
2019-03-12T21:13:50.028Z,7.43
2019-03-12T21:19:15.828Z,5.73
2019-03-12T21:24:41.778Z,2.93
2019-03-12T21:29:47.718Z,3.17
2019-03-12T21:34:54.105Z,4.03
2019-03-12T21:40:00.267Z,4.10
2019-03-12T21:45:09.105Z,4.70
2019-03-12T21:50:14.953Z,4.73
2019-03-12T21:55:20.616Z,4.50
2019-03-12T22:00:26.503Z,4.77
2019-03-12T22:05:32.223Z,6.20
2019-03-12T22:10:38.270Z,4.30
2019-03-12T22:15:44.016Z,6.50
2019-03-12T22:20:51.372Z,3.67
2019-03-12T22:25:57.291Z,4.80
2019-03-12T22:31:04.181Z,6.13
2019-03-12T22:36:10.193Z,4.00
2019-03-12T22:41:15.932Z,3.07
2019-03-12T22:46:21.728Z,6.63
2019-03-12T22:51:27.479Z,4.30
2019-03-12T22:56:34.837Z,3.83
2019-03-12T23:01:41.720Z,5.80
2019-03-12T23:07:05.416Z,5.77
2019-03-12T23:12:19.309Z,6.93
2019-03-12T23:17:25.890Z,5.07
2019-03-12T23:22:31.782Z,7.47
2019-03-12T23:27:37.759Z,6.10
2019-03-12T23:32:43.533Z,4.70
2019-03-12T23:37:49.309Z,5.27
2019-03-12T23:42:55.177Z,8.47
2019-03-12T23:48:00.978Z,3.77
2019-03-12T23:53:07.326Z,6.97
2019-03-12T23:58:13.089Z,6.43
